sensor_id;sensor_type;location;lat;lon;timestamp;P1;durP1;ratioP1;P2;durP2;ratioP2
47337;SDS011;33069;51.970;5.892;2022-07-30T00:00:06;28.63;;;19.88;;
47337;SDS011;33069;51.970;5.892;2022-07-30T00:02:34;32.95;;;21.25;;
47337;SDS011;33069;51.970;5.892;2022-07-30T00:05:00;33.15;;;20.60;;
47337;SDS011;33069;51.970;5.892;2022-07-30T00:07:26;37.95;;;22.15;;
47337;SDS011;33069;51.970;5.892;2022-07-30T00:09:52;36.33;;;22.35;;
47337;SDS011;33069;51.970;5.892;2022-07-30T00:12:18;31.23;;;18.92;;
47337;SDS011;33069;51.970;5.892;2022-07-30T00:14:43;31.00;;;21.48;;
47337;SDS011;33069;51.970;5.892;2022-07-30T00:17:09;34.97;;;20.85;;
47337;SDS011;33069;51.970;5.892;2022-07-30T00:19:35;35.97;;;23.02;;
47337;SDS011;33069;51.970;5.892;2022-07-30T00:22:01;33.80;;;22.27;;
47337;SDS011;33069;51.970;5.892;2022-07-30T00:24:27;38.67;;;23.42;;
47337;SDS011;33069;51.970;5.892;2022-07-30T00:26:53;38.90;;;24.23;;
47337;SDS011;33069;51.970;5.892;2022-07-30T00:29:19;31.73;;;22.08;;
47337;SDS011;33069;51.970;5.892;2022-07-30T00:31:45;39.45;;;23.05;;
47337;SDS011;33069;51.970;5.892;2022-07-30T00:34:11;32.95;;;20.58;;
47337;SDS011;33069;51.970;5.892;2022-07-30T00:36:38;31.10;;;21.33;;
47337;SDS011;33069;51.970;5.892;2022-07-30T00:39:04;35.17;;;22.48;;
47337;SDS011;33069;51.970;5.892;2022-07-30T00:41:30;42.28;;;23.67;;
47337;SDS011;33069;51.970;5.892;2022-07-30T00:43:56;37.90;;;22.90;;
47337;SDS011;33069;51.970;5.892;2022-07-30T00:46:21;37.90;;;26.10;;
47337;SDS011;33069;51.970;5.892;2022-07-30T00:48:47;35.10;;;22.70;;
47337;SDS011;33069;51.970;5.892;2022-07-30T00:51:13;35.35;;;23.60;;
47337;SDS011;33069;51.970;5.892;2022-07-30T00:53:39;33.58;;;22.52;;
47337;SDS011;33069;51.970;5.892;2022-07-30T00:56:05;31.13;;;24.45;;
47337;SDS011;33069;51.970;5.892;2022-07-30T00:58:31;36.72;;;22.45;;
47337;SDS011;33069;51.970;5.892;2022-07-30T01:00:56;33.88;;;23.52;;
47337;SDS011;33069;51.970;5.892;2022-07-30T01:03:22;36.17;;;20.40;;
47337;SDS011;33069;51.970;5.892;2022-07-30T01:05:48;37.55;;;25.30;;
47337;SDS011;33069;51.970;5.892;2022-07-30T01:08:14;37.95;;;23.33;;
47337;SDS011;33069;51.970;5.892;2022-07-30T01:10:40;41.10;;;23.02;;
47337;SDS011;33069;51.970;5.892;2022-07-30T01:13:06;39.28;;;24.38;;
47337;SDS011;33069;51.970;5.892;2022-07-30T01:15:32;35.47;;;20.88;;
47337;SDS011;33069;51.970;5.892;2022-07-30T01:17:59;33.22;;;20.60;;
47337;SDS011;33069;51.970;5.892;2022-07-30T01:20:29;40.42;;;23.75;;
47337;SDS011;33069;51.970;5.892;2022-07-30T01:23:22;35.83;;;20.88;;
47337;SDS011;33069;51.970;5.892;2022-07-30T01:26:22;43.72;;;25.55;;
47337;SDS011;33069;51.970;5.892;2022-07-30T01:28:48;27.57;;;18.47;;
47337;SDS011;33069;51.970;5.892;2022-07-30T01:31:16;44.50;;;23.58;;
47337;SDS011;33069;51.970;5.892;2022-07-30T01:33:46;41.08;;;21.85;;
47337;SDS011;33069;51.970;5.892;2022-07-30T01:36:14;35.40;;;19.65;;
47337;SDS011;33069;51.970;5.892;2022-07-30T01:38:44;27.48;;;19.13;;
47337;SDS011;33069;51.970;5.892;2022-07-30T01:41:11;31.98;;;18.60;;
47337;SDS011;33069;51.970;5.892;2022-07-30T01:43:39;28.92;;;19.50;;
47337;SDS011;33069;51.970;5.892;2022-07-30T01:46:06;32.08;;;19.63;;
47337;SDS011;33069;51.970;5.892;2022-07-30T01:48:35;32.25;;;19.25;;
47337;SDS011;33069;51.970;5.892;2022-07-30T01:51:04;31.88;;;20.73;;
47337;SDS011;33069;51.970;5.892;2022-07-30T01:53:31;27.77;;;19.17;;
47337;SDS011;33069;51.970;5.892;2022-07-30T01:56:00;38.33;;;21.75;;
47337;SDS011;33069;51.970;5.892;2022-07-30T01:58:28;35.58;;;19.25;;
47337;SDS011;33069;51.970;5.892;2022-07-30T02:00:56;32.63;;;19.92;;
47337;SDS011;33069;51.970;5.892;2022-07-30T02:03:24;31.35;;;20.10;;
47337;SDS011;33069;51.970;5.892;2022-07-30T02:05:57;32.72;;;21.65;;
47337;SDS011;33069;51.970;5.892;2022-07-30T02:10:57;30.10;;;19.15;;
47337;SDS011;33069;51.970;5.892;2022-07-30T02:13:28;41.72;;;22.83;;
47337;SDS011;33069;51.970;5.892;2022-07-30T02:16:08;36.72;;;20.20;;
47337;SDS011;33069;51.970;5.892;2022-07-30T02:18:42;32.70;;;18.48;;
47337;SDS011;33069;51.970;5.892;2022-07-30T02:21:12;32.67;;;20.33;;
47337;SDS011;33069;51.970;5.892;2022-07-30T02:23:43;36.33;;;19.73;;
47337;SDS011;33069;51.970;5.892;2022-07-30T02:26:13;34.10;;;20.02;;
47337;SDS011;33069;51.970;5.892;2022-07-30T02:28:43;39.55;;;23.92;;
47337;SDS011;33069;51.970;5.892;2022-07-30T02:31:12;40.22;;;23.88;;
47337;SDS011;33069;51.970;5.892;2022-07-30T02:33:42;50.63;;;26.48;;
47337;SDS011;33069;51.970;5.892;2022-07-30T02:36:09;39.97;;;25.58;;
47337;SDS011;33069;51.970;5.892;2022-07-30T02:38:36;33.97;;;22.27;;
47337;SDS011;33069;51.970;5.892;2022-07-30T02:41:03;40.97;;;23.15;;
47337;SDS011;33069;51.970;5.892;2022-07-30T02:43:32;28.50;;;20.60;;
47337;SDS011;33069;51.970;5.892;2022-07-30T02:45:59;42.92;;;22.35;;
47337;SDS011;33069;51.970;5.892;2022-07-30T02:48:27;38.10;;;22.15;;
47337;SDS011;33069;51.970;5.892;2022-07-30T02:50:53;35.00;;;20.85;;
47337;SDS011;33069;51.970;5.892;2022-07-30T02:53:21;30.35;;;21.45;;
47337;SDS011;33069;51.970;5.892;2022-07-30T02:55:48;40.75;;;22.92;;
47337;SDS011;33069;51.970;5.892;2022-07-30T02:58:20;42.17;;;25.45;;
47337;SDS011;33069;51.970;5.892;2022-07-30T03:00:48;56.83;;;32.60;;
47337;SDS011;33069;51.970;5.892;2022-07-30T03:03:16;52.22;;;29.77;;
47337;SDS011;33069;51.970;5.892;2022-07-30T03:05:42;51.15;;;29.02;;
47337;SDS011;33069;51.970;5.892;2022-07-30T03:08:11;45.15;;;28.15;;
47337;SDS011;33069;51.970;5.892;2022-07-30T03:10:39;62.95;;;33.30;;
47337;SDS011;33069;51.970;5.892;2022-07-30T03:13:08;54.83;;;32.70;;
47337;SDS011;33069;51.970;5.892;2022-07-30T03:15:36;67.80;;;38.33;;
47337;SDS011;33069;51.970;5.892;2022-07-30T03:18:09;75.80;;;38.28;;
47337;SDS011;33069;51.970;5.892;2022-07-30T03:20:39;182.50;;;61.97;;
47337;SDS011;33069;51.970;5.892;2022-07-30T03:23:08;89.35;;;39.38;;
47337;SDS011;33069;51.970;5.892;2022-07-30T03:25:36;127.95;;;47.53;;
47337;SDS011;33069;51.970;5.892;2022-07-30T03:28:06;94.75;;;38.65;;
47337;SDS011;33069;51.970;5.892;2022-07-30T03:30:32;66.55;;;36.47;;
47337;SDS011;33069;51.970;5.892;2022-07-30T03:32:58;117.18;;;50.17;;
47337;SDS011;33069;51.970;5.892;2022-07-30T03:35:24;115.88;;;50.88;;
47337;SDS011;33069;51.970;5.892;2022-07-30T03:37:51;95.63;;;47.92;;
47337;SDS011;33069;51.970;5.892;2022-07-30T03:40:19;106.13;;;51.10;;
47337;SDS011;33069;51.970;5.892;2022-07-30T03:42:46;59.30;;;37.38;;
47337;SDS011;33069;51.970;5.892;2022-07-30T03:45:13;71.28;;;41.95;;
47337;SDS011;33069;51.970;5.892;2022-07-30T03:47:39;60.67;;;38.67;;
47337;SDS011;33069;51.970;5.892;2022-07-30T03:50:07;72.40;;;42.08;;
47337;SDS011;33069;51.970;5.892;2022-07-30T03:52:34;56.72;;;36.30;;
47337;SDS011;33069;51.970;5.892;2022-07-30T03:55:02;58.20;;;38.28;;
47337;SDS011;33069;51.970;5.892;2022-07-30T03:57:29;51.38;;;32.97;;
47337;SDS011;33069;51.970;5.892;2022-07-30T03:59:55;55.03;;;37.63;;
47337;SDS011;33069;51.970;5.892;2022-07-30T04:02:21;47.00;;;32.80;;
47337;SDS011;33069;51.970;5.892;2022-07-30T04:04:46;48.17;;;34.13;;
47337;SDS011;33069;51.970;5.892;2022-07-30T04:07:12;41.08;;;29.17;;
47337;SDS011;33069;51.970;5.892;2022-07-30T04:09:38;50.35;;;30.42;;
47337;SDS011;33069;51.970;5.892;2022-07-30T04:12:04;39.65;;;26.60;;
47337;SDS011;33069;51.970;5.892;2022-07-30T04:14:41;39.42;;;27.20;;
47337;SDS011;33069;51.970;5.892;2022-07-30T04:17:10;39.83;;;27.75;;
47337;SDS011;33069;51.970;5.892;2022-07-30T04:19:45;33.08;;;24.60;;
47337;SDS011;33069;51.970;5.892;2022-07-30T04:22:16;30.58;;;22.90;;
47337;SDS011;33069;51.970;5.892;2022-07-30T04:24:45;31.98;;;21.90;;
47337;SDS011;33069;51.970;5.892;2022-07-30T04:27:12;32.13;;;21.05;;
47337;SDS011;33069;51.970;5.892;2022-07-30T04:29:38;33.33;;;21.17;;
47337;SDS011;33069;51.970;5.892;2022-07-30T04:32:05;33.03;;;20.80;;
47337;SDS011;33069;51.970;5.892;2022-07-30T04:34:33;29.67;;;21.67;;
47337;SDS011;33069;51.970;5.892;2022-07-30T04:36:58;30.80;;;21.70;;
47337;SDS011;33069;51.970;5.892;2022-07-30T04:39:24;35.20;;;24.45;;
47337;SDS011;33069;51.970;5.892;2022-07-30T04:41:50;29.50;;;21.02;;
47337;SDS011;33069;51.970;5.892;2022-07-30T04:44:19;31.95;;;21.92;;
47337;SDS011;33069;51.970;5.892;2022-07-30T04:46:45;30.77;;;20.30;;
47337;SDS011;33069;51.970;5.892;2022-07-30T04:49:11;27.40;;;21.05;;
47337;SDS011;33069;51.970;5.892;2022-07-30T04:51:39;41.88;;;26.33;;
47337;SDS011;33069;51.970;5.892;2022-07-30T04:54:06;41.45;;;27.55;;
47337;SDS011;33069;51.970;5.892;2022-07-30T04:56:35;37.45;;;21.05;;
47337;SDS011;33069;51.970;5.892;2022-07-30T04:59:02;37.85;;;23.27;;
47337;SDS011;33069;51.970;5.892;2022-07-30T05:01:31;31.02;;;20.40;;
47337;SDS011;33069;51.970;5.892;2022-07-30T05:04:00;30.33;;;19.60;;
47337;SDS011;33069;51.970;5.892;2022-07-30T05:06:27;26.65;;;20.05;;
47337;SDS011;33069;51.970;5.892;2022-07-30T05:08:53;29.95;;;20.48;;
47337;SDS011;33069;51.970;5.892;2022-07-30T05:11:19;31.70;;;19.50;;
47337;SDS011;33069;51.970;5.892;2022-07-30T05:13:45;25.38;;;18.42;;
47337;SDS011;33069;51.970;5.892;2022-07-30T05:16:12;29.25;;;18.63;;
47337;SDS011;33069;51.970;5.892;2022-07-30T05:18:39;34.95;;;18.52;;
47337;SDS011;33069;51.970;5.892;2022-07-30T05:21:05;25.60;;;18.98;;
47337;SDS011;33069;51.970;5.892;2022-07-30T05:23:31;23.67;;;16.73;;
47337;SDS011;33069;51.970;5.892;2022-07-30T05:25:57;29.10;;;16.50;;
47337;SDS011;33069;51.970;5.892;2022-07-30T05:28:23;24.65;;;17.15;;
47337;SDS011;33069;51.970;5.892;2022-07-30T05:30:53;26.45;;;18.30;;
47337;SDS011;33069;51.970;5.892;2022-07-30T05:33:19;25.55;;;17.95;;
47337;SDS011;33069;51.970;5.892;2022-07-30T05:35:47;27.88;;;15.75;;
47337;SDS011;33069;51.970;5.892;2022-07-30T05:38:13;22.63;;;17.13;;
47337;SDS011;33069;51.970;5.892;2022-07-30T05:40:39;27.23;;;16.75;;
47337;SDS011;33069;51.970;5.892;2022-07-30T05:43:05;24.60;;;15.68;;
47337;SDS011;33069;51.970;5.892;2022-07-30T05:45:30;21.88;;;15.15;;
47337;SDS011;33069;51.970;5.892;2022-07-30T05:47:56;21.77;;;13.90;;
47337;SDS011;33069;51.970;5.892;2022-07-30T05:50:22;21.33;;;15.60;;
47337;SDS011;33069;51.970;5.892;2022-07-30T05:52:48;19.50;;;13.73;;
47337;SDS011;33069;51.970;5.892;2022-07-30T05:55:14;26.20;;;14.57;;
47337;SDS011;33069;51.970;5.892;2022-07-30T05:57:39;21.25;;;12.85;;
47337;SDS011;33069;51.970;5.892;2022-07-30T06:00:07;18.60;;;13.18;;
47337;SDS011;33069;51.970;5.892;2022-07-30T06:02:35;24.42;;;13.02;;
47337;SDS011;33069;51.970;5.892;2022-07-30T06:05:01;18.48;;;12.63;;
47337;SDS011;33069;51.970;5.892;2022-07-30T06:07:27;19.55;;;12.13;;
47337;SDS011;33069;51.970;5.892;2022-07-30T06:09:53;20.45;;;12.90;;
47337;SDS011;33069;51.970;5.892;2022-07-30T06:12:24;18.08;;;12.05;;
47337;SDS011;33069;51.970;5.892;2022-07-30T06:14:51;16.05;;;11.13;;
47337;SDS011;33069;51.970;5.892;2022-07-30T06:17:16;17.85;;;11.68;;
47337;SDS011;33069;51.970;5.892;2022-07-30T06:19:42;14.77;;;9.85;;
47337;SDS011;33069;51.970;5.892;2022-07-30T06:22:08;13.02;;;9.85;;
47337;SDS011;33069;51.970;5.892;2022-07-30T06:24:33;17.58;;;9.70;;
47337;SDS011;33069;51.970;5.892;2022-07-30T06:26:59;20.20;;;11.13;;
47337;SDS011;33069;51.970;5.892;2022-07-30T06:29:25;19.45;;;9.93;;
47337;SDS011;33069;51.970;5.892;2022-07-30T06:31:51;19.20;;;10.60;;
47337;SDS011;33069;51.970;5.892;2022-07-30T06:34:17;16.27;;;9.32;;
47337;SDS011;33069;51.970;5.892;2022-07-30T06:36:43;17.13;;;8.98;;
47337;SDS011;33069;51.970;5.892;2022-07-30T06:39:08;15.60;;;9.30;;
47337;SDS011;33069;51.970;5.892;2022-07-30T06:41:34;15.65;;;7.80;;
47337;SDS011;33069;51.970;5.892;2022-07-30T06:44:00;12.48;;;8.15;;
47337;SDS011;33069;51.970;5.892;2022-07-30T06:46:25;12.75;;;7.88;;
47337;SDS011;33069;51.970;5.892;2022-07-30T06:48:51;18.63;;;8.35;;
47337;SDS011;33069;51.970;5.892;2022-07-30T06:51:17;16.10;;;7.10;;
47337;SDS011;33069;51.970;5.892;2022-07-30T06:53:42;16.73;;;7.97;;
47337;SDS011;33069;51.970;5.892;2022-07-30T06:56:10;13.35;;;6.00;;
47337;SDS011;33069;51.970;5.892;2022-07-30T06:58:36;17.92;;;6.13;;
47337;SDS011;33069;51.970;5.892;2022-07-30T07:01:03;11.05;;;5.93;;
47337;SDS011;33069;51.970;5.892;2022-07-30T07:03:29;16.98;;;6.07;;
47337;SDS011;33069;51.970;5.892;2022-07-30T07:05:55;8.88;;;5.40;;
47337;SDS011;33069;51.970;5.892;2022-07-30T07:08:21;12.10;;;5.18;;
47337;SDS011;33069;51.970;5.892;2022-07-30T07:10:46;16.25;;;5.93;;
47337;SDS011;33069;51.970;5.892;2022-07-30T07:13:12;9.32;;;4.85;;
47337;SDS011;33069;51.970;5.892;2022-07-30T07:15:38;14.10;;;4.93;;
47337;SDS011;33069;51.970;5.892;2022-07-30T07:18:04;12.02;;;5.50;;
47337;SDS011;33069;51.970;5.892;2022-07-30T07:20:30;16.70;;;6.00;;
47337;SDS011;33069;51.970;5.892;2022-07-30T07:22:57;14.75;;;5.65;;
47337;SDS011;33069;51.970;5.892;2022-07-30T07:25:23;14.25;;;6.43;;
47337;SDS011;33069;51.970;5.892;2022-07-30T07:27:49;9.93;;;5.28;;
47337;SDS011;33069;51.970;5.892;2022-07-30T07:30:14;18.75;;;6.57;;
47337;SDS011;33069;51.970;5.892;2022-07-30T07:32:40;15.70;;;5.63;;
47337;SDS011;33069;51.970;5.892;2022-07-30T07:35:06;13.50;;;6.30;;
47337;SDS011;33069;51.970;5.892;2022-07-30T07:37:32;12.82;;;6.57;;
47337;SDS011;33069;51.970;5.892;2022-07-30T07:39:58;16.48;;;6.35;;
47337;SDS011;33069;51.970;5.892;2022-07-30T07:42:23;13.23;;;5.88;;
47337;SDS011;33069;51.970;5.892;2022-07-30T07:44:49;12.00;;;5.60;;
47337;SDS011;33069;51.970;5.892;2022-07-30T07:47:15;9.15;;;5.40;;
47337;SDS011;33069;51.970;5.892;2022-07-30T07:49:41;11.02;;;5.55;;
47337;SDS011;33069;51.970;5.892;2022-07-30T07:52:07;10.60;;;4.68;;
47337;SDS011;33069;51.970;5.892;2022-07-30T07:54:32;11.15;;;5.03;;
47337;SDS011;33069;51.970;5.892;2022-07-30T07:56:58;11.40;;;5.55;;
47337;SDS011;33069;51.970;5.892;2022-07-30T07:59:24;10.60;;;5.40;;
47337;SDS011;33069;51.970;5.892;2022-07-30T08:01:50;11.68;;;5.93;;
47337;SDS011;33069;51.970;5.892;2022-07-30T08:04:16;8.95;;;4.50;;
47337;SDS011;33069;51.970;5.892;2022-07-30T08:06:42;11.52;;;5.10;;
47337;SDS011;33069;51.970;5.892;2022-07-30T08:09:07;15.30;;;5.25;;
47337;SDS011;33069;51.970;5.892;2022-07-30T08:11:33;11.63;;;5.07;;
47337;SDS011;33069;51.970;5.892;2022-07-30T08:13:59;13.80;;;5.22;;
47337;SDS011;33069;51.970;5.892;2022-07-30T08:16:24;10.95;;;5.40;;
47337;SDS011;33069;51.970;5.892;2022-07-30T08:18:50;8.63;;;4.95;;
47337;SDS011;33069;51.970;5.892;2022-07-30T08:21:16;10.07;;;3.67;;
47337;SDS011;33069;51.970;5.892;2022-07-30T08:23:42;8.70;;;4.43;;
47337;SDS011;33069;51.970;5.892;2022-07-30T08:26:08;10.95;;;4.40;;
47337;SDS011;33069;51.970;5.892;2022-07-30T08:28:34;9.35;;;4.53;;
47337;SDS011;33069;51.970;5.892;2022-07-30T08:31:00;7.32;;;4.07;;
47337;SDS011;33069;51.970;5.892;2022-07-30T08:33:26;13.50;;;5.85;;
47337;SDS011;33069;51.970;5.892;2022-07-30T08:35:51;11.65;;;4.50;;
47337;SDS011;33069;51.970;5.892;2022-07-30T08:38:17;7.55;;;3.72;;
47337;SDS011;33069;51.970;5.892;2022-07-30T08:40:43;6.60;;;2.80;;
47337;SDS011;33069;51.970;5.892;2022-07-30T08:43:12;9.82;;;4.68;;
47337;SDS011;33069;51.970;5.892;2022-07-30T08:45:39;15.50;;;6.53;;
47337;SDS011;33069;51.970;5.892;2022-07-30T08:48:07;12.52;;;4.65;;
47337;SDS011;33069;51.970;5.892;2022-07-30T08:50:35;7.28;;;4.82;;
47337;SDS011;33069;51.970;5.892;2022-07-30T08:53:01;7.68;;;3.95;;
47337;SDS011;33069;51.970;5.892;2022-07-30T08:55:27;9.10;;;3.42;;
47337;SDS011;33069;51.970;5.892;2022-07-30T08:57:53;8.02;;;3.42;;
47337;SDS011;33069;51.970;5.892;2022-07-30T09:00:20;9.40;;;3.45;;
47337;SDS011;33069;51.970;5.892;2022-07-30T09:02:45;7.80;;;3.95;;
47337;SDS011;33069;51.970;5.892;2022-07-30T09:05:11;8.75;;;2.70;;
47337;SDS011;33069;51.970;5.892;2022-07-30T09:07:38;6.63;;;2.85;;
47337;SDS011;33069;51.970;5.892;2022-07-30T09:10:04;9.02;;;2.78;;
47337;SDS011;33069;51.970;5.892;2022-07-30T09:12:32;11.38;;;3.83;;
47337;SDS011;33069;51.970;5.892;2022-07-30T09:15:05;8.88;;;3.30;;
47337;SDS011;33069;51.970;5.892;2022-07-30T09:18:09;9.55;;;3.83;;
47337;SDS011;33069;51.970;5.892;2022-07-30T09:20:29;7.13;;;2.90;;
47337;SDS011;33069;51.970;5.892;2022-07-30T09:22:58;9.32;;;3.50;;
47337;SDS011;33069;51.970;5.892;2022-07-30T09:25:36;7.45;;;2.95;;
47337;SDS011;33069;51.970;5.892;2022-07-30T09:28:07;4.95;;;2.65;;
47337;SDS011;33069;51.970;5.892;2022-07-30T09:30:53;7.57;;;2.95;;
47337;SDS011;33069;51.970;5.892;2022-07-30T09:36:02;8.80;;;3.30;;
47337;SDS011;33069;51.970;5.892;2022-07-30T09:38:40;5.78;;;2.65;;
47337;SDS011;33069;51.970;5.892;2022-07-30T09:41:16;9.80;;;3.28;;
47337;SDS011;33069;51.970;5.892;2022-07-30T09:43:55;7.82;;;3.35;;
47337;SDS011;33069;51.970;5.892;2022-07-30T09:46:21;6.13;;;3.15;;
47337;SDS011;33069;51.970;5.892;2022-07-30T09:49:17;6.20;;;3.28;;
47337;SDS011;33069;51.970;5.892;2022-07-30T09:51:44;10.55;;;2.97;;
47337;SDS011;33069;51.970;5.892;2022-07-30T09:54:10;9.38;;;2.92;;
47337;SDS011;33069;51.970;5.892;2022-07-30T09:56:36;7.53;;;2.90;;
47337;SDS011;33069;51.970;5.892;2022-07-30T09:59:01;8.32;;;3.50;;
47337;SDS011;33069;51.970;5.892;2022-07-30T10:01:27;8.70;;;2.75;;
47337;SDS011;33069;51.970;5.892;2022-07-30T10:04:22;6.65;;;3.08;;
47337;SDS011;33069;51.970;5.892;2022-07-30T10:06:51;8.80;;;2.70;;
47337;SDS011;33069;51.970;5.892;2022-07-30T10:09:25;8.57;;;2.95;;
47337;SDS011;33069;51.970;5.892;2022-07-30T10:12:02;9.60;;;3.17;;
47337;SDS011;33069;51.970;5.892;2022-07-30T10:14:34;6.80;;;3.00;;
47337;SDS011;33069;51.970;5.892;2022-07-30T10:17:00;7.75;;;3.50;;
47337;SDS011;33069;51.970;5.892;2022-07-30T10:19:27;6.57;;;2.92;;
47337;SDS011;33069;51.970;5.892;2022-07-30T10:21:53;4.25;;;2.35;;
47337;SDS011;33069;51.970;5.892;2022-07-30T10:24:24;9.68;;;3.42;;
47337;SDS011;33069;51.970;5.892;2022-07-30T10:26:53;10.77;;;3.05;;
47337;SDS011;33069;51.970;5.892;2022-07-30T10:29:19;5.05;;;2.47;;
47337;SDS011;33069;51.970;5.892;2022-07-30T10:31:46;6.30;;;2.45;;
47337;SDS011;33069;51.970;5.892;2022-07-30T10:34:13;5.00;;;2.60;;
47337;SDS011;33069;51.970;5.892;2022-07-30T10:36:45;7.75;;;2.85;;
47337;SDS011;33069;51.970;5.892;2022-07-30T10:39:35;5.18;;;2.30;;
47337;SDS011;33069;51.970;5.892;2022-07-30T10:45:06;6.82;;;2.53;;
47337;SDS011;33069;51.970;5.892;2022-07-30T10:47:42;4.65;;;2.35;;
47337;SDS011;33069;51.970;5.892;2022-07-30T10:50:10;6.25;;;2.10;;
47337;SDS011;33069;51.970;5.892;2022-07-30T10:53:13;6.13;;;2.90;;
47337;SDS011;33069;51.970;5.892;2022-07-30T10:55:32;4.53;;;2.20;;
47337;SDS011;33069;51.970;5.892;2022-07-30T10:58:03;5.20;;;2.30;;
47337;SDS011;33069;51.970;5.892;2022-07-30T11:03:19;4.22;;;2.40;;
47337;SDS011;33069;51.970;5.892;2022-07-30T11:06:35;6.82;;;2.58;;
47337;SDS011;33069;51.970;5.892;2022-07-30T11:08:39;6.85;;;2.10;;
47337;SDS011;33069;51.970;5.892;2022-07-30T11:13:59;6.35;;;2.17;;
47337;SDS011;33069;51.970;5.892;2022-07-30T11:21:33;5.57;;;2.13;;
47337;SDS011;33069;51.970;5.892;2022-07-30T11:23:59;5.50;;;2.20;;
47337;SDS011;33069;51.970;5.892;2022-07-30T11:29:04;4.53;;;2.17;;
47337;SDS011;33069;51.970;5.892;2022-07-30T11:31:31;6.53;;;2.38;;
47337;SDS011;33069;51.970;5.892;2022-07-30T11:42:23;4.88;;;2.88;;
47337;SDS011;33069;51.970;5.892;2022-07-30T11:47:43;6.50;;;2.65;;
47337;SDS011;33069;51.970;5.892;2022-07-30T11:50:23;7.97;;;3.30;;
47337;SDS011;33069;51.970;5.892;2022-07-30T11:53:01;8.10;;;2.78;;
47337;SDS011;33069;51.970;5.892;2022-07-30T11:55:33;5.75;;;3.20;;
47337;SDS011;33069;51.970;5.892;2022-07-30T11:58:04;3.65;;;2.20;;
47337;SDS011;33069;51.970;5.892;2022-07-30T12:00:36;4.80;;;2.25;;
47337;SDS011;33069;51.970;5.892;2022-07-30T12:03:10;6.30;;;3.08;;
47337;SDS011;33069;51.970;5.892;2022-07-30T12:05:39;6.80;;;3.22;;
47337;SDS011;33069;51.970;5.892;2022-07-30T12:08:06;6.90;;;3.30;;
47337;SDS011;33069;51.970;5.892;2022-07-30T12:10:32;7.68;;;3.60;;
47337;SDS011;33069;51.970;5.892;2022-07-30T12:13:07;9.43;;;2.88;;
47337;SDS011;33069;51.970;5.892;2022-07-30T12:15:47;6.43;;;3.17;;
47337;SDS011;33069;51.970;5.892;2022-07-30T12:18:13;8.57;;;2.95;;
47337;SDS011;33069;51.970;5.892;2022-07-30T12:20:54;8.23;;;2.70;;
47337;SDS011;33069;51.970;5.892;2022-07-30T12:23:27;5.50;;;2.80;;
47337;SDS011;33069;51.970;5.892;2022-07-30T12:25:53;4.90;;;2.30;;
47337;SDS011;33069;51.970;5.892;2022-07-30T12:28:21;5.28;;;2.75;;
47337;SDS011;33069;51.970;5.892;2022-07-30T12:30:49;5.50;;;2.53;;
47337;SDS011;33069;51.970;5.892;2022-07-30T12:33:16;8.05;;;3.00;;
47337;SDS011;33069;51.970;5.892;2022-07-30T12:35:43;6.50;;;2.85;;
47337;SDS011;33069;51.970;5.892;2022-07-30T12:38:13;6.32;;;2.67;;
47337;SDS011;33069;51.970;5.892;2022-07-30T12:46:18;6.80;;;2.72;;
47337;SDS011;33069;51.970;5.892;2022-07-30T12:51:14;3.60;;;2.25;;
47337;SDS011;33069;51.970;5.892;2022-07-30T12:53:40;5.60;;;2.30;;
47337;SDS011;33069;51.970;5.892;2022-07-30T12:56:09;6.55;;;2.53;;
47337;SDS011;33069;51.970;5.892;2022-07-30T12:58:45;6.30;;;2.47;;
47337;SDS011;33069;51.970;5.892;2022-07-30T13:01:11;8.18;;;2.50;;
47337;SDS011;33069;51.970;5.892;2022-07-30T13:03:38;8.32;;;2.50;;
47337;SDS011;33069;51.970;5.892;2022-07-30T13:06:11;5.10;;;2.30;;
47337;SDS011;33069;51.970;5.892;2022-07-30T13:11:21;3.83;;;2.50;;
47337;SDS011;33069;51.970;5.892;2022-07-30T13:13:48;5.90;;;2.65;;
47337;SDS011;33069;51.970;5.892;2022-07-30T13:16:15;4.35;;;2.28;;
47337;SDS011;33069;51.970;5.892;2022-07-30T13:18:41;6.78;;;2.22;;
47337;SDS011;33069;51.970;5.892;2022-07-30T13:21:07;5.35;;;2.00;;
47337;SDS011;33069;51.970;5.892;2022-07-30T13:23:37;6.10;;;2.42;;
47337;SDS011;33069;51.970;5.892;2022-07-30T13:26:04;5.53;;;2.40;;
47337;SDS011;33069;51.970;5.892;2022-07-30T13:28:31;5.70;;;2.45;;
47337;SDS011;33069;51.970;5.892;2022-07-30T13:30:58;4.32;;;2.38;;
47337;SDS011;33069;51.970;5.892;2022-07-30T13:33:25;7.05;;;2.10;;
47337;SDS011;33069;51.970;5.892;2022-07-30T13:35:50;6.47;;;2.63;;
47337;SDS011;33069;51.970;5.892;2022-07-30T13:38:16;7.97;;;2.88;;
47337;SDS011;33069;51.970;5.892;2022-07-30T13:40:42;4.30;;;2.33;;
47337;SDS011;33069;51.970;5.892;2022-07-30T13:43:08;7.55;;;2.20;;
47337;SDS011;33069;51.970;5.892;2022-07-30T13:45:34;6.60;;;2.60;;
47337;SDS011;33069;51.970;5.892;2022-07-30T13:48:01;5.97;;;2.20;;
47337;SDS011;33069;51.970;5.892;2022-07-30T13:50:28;5.95;;;2.40;;
47337;SDS011;33069;51.970;5.892;2022-07-30T13:52:54;5.90;;;2.20;;
47337;SDS011;33069;51.970;5.892;2022-07-30T13:55:19;6.53;;;2.10;;
47337;SDS011;33069;51.970;5.892;2022-07-30T13:57:45;7.18;;;2.30;;
47337;SDS011;33069;51.970;5.892;2022-07-30T14:00:11;3.50;;;1.83;;
47337;SDS011;33069;51.970;5.892;2022-07-30T14:02:37;8.93;;;2.45;;
47337;SDS011;33069;51.970;5.892;2022-07-30T14:05:03;7.72;;;2.38;;
47337;SDS011;33069;51.970;5.892;2022-07-30T14:07:35;6.75;;;2.63;;
47337;SDS011;33069;51.970;5.892;2022-07-30T14:10:02;4.00;;;2.42;;
47337;SDS011;33069;51.970;5.892;2022-07-30T14:12:31;5.28;;;2.63;;
47337;SDS011;33069;51.970;5.892;2022-07-30T14:14:57;6.05;;;2.00;;
47337;SDS011;33069;51.970;5.892;2022-07-30T14:17:23;6.68;;;2.17;;
47337;SDS011;33069;51.970;5.892;2022-07-30T14:19:49;7.05;;;2.33;;
47337;SDS011;33069;51.970;5.892;2022-07-30T14:22:18;7.40;;;2.38;;
47337;SDS011;33069;51.970;5.892;2022-07-30T14:24:44;5.75;;;2.13;;
47337;SDS011;33069;51.970;5.892;2022-07-30T14:27:11;6.35;;;2.38;;
47337;SDS011;33069;51.970;5.892;2022-07-30T14:29:37;4.72;;;2.17;;
47337;SDS011;33069;51.970;5.892;2022-07-30T14:32:03;6.18;;;2.28;;
47337;SDS011;33069;51.970;5.892;2022-07-30T14:34:29;4.28;;;1.95;;
47337;SDS011;33069;51.970;5.892;2022-07-30T14:36:54;4.38;;;1.85;;
47337;SDS011;33069;51.970;5.892;2022-07-30T14:39:20;3.30;;;1.67;;
47337;SDS011;33069;51.970;5.892;2022-07-30T14:41:46;3.25;;;1.80;;
47337;SDS011;33069;51.970;5.892;2022-07-30T14:44:12;5.18;;;1.80;;
47337;SDS011;33069;51.970;5.892;2022-07-30T14:46:38;3.30;;;1.90;;
47337;SDS011;33069;51.970;5.892;2022-07-30T14:49:05;4.32;;;2.10;;
47337;SDS011;33069;51.970;5.892;2022-07-30T14:51:32;4.32;;;2.10;;
47337;SDS011;33069;51.970;5.892;2022-07-30T14:53:59;3.70;;;2.00;;
47337;SDS011;33069;51.970;5.892;2022-07-30T14:56:25;4.45;;;2.00;;
47337;SDS011;33069;51.970;5.892;2022-07-30T14:58:51;6.25;;;2.40;;
47337;SDS011;33069;51.970;5.892;2022-07-30T15:01:18;6.65;;;2.13;;
47337;SDS011;33069;51.970;5.892;2022-07-30T15:03:44;7.75;;;2.03;;
47337;SDS011;33069;51.970;5.892;2022-07-30T15:06:10;5.93;;;2.00;;
47337;SDS011;33069;51.970;5.892;2022-07-30T15:08:38;6.53;;;1.95;;
47337;SDS011;33069;51.970;5.892;2022-07-30T15:11:04;4.30;;;2.00;;
47337;SDS011;33069;51.970;5.892;2022-07-30T15:13:30;4.43;;;2.22;;
47337;SDS011;33069;51.970;5.892;2022-07-30T15:15:56;5.95;;;2.15;;
47337;SDS011;33069;51.970;5.892;2022-07-30T15:18:21;5.35;;;1.90;;
47337;SDS011;33069;51.970;5.892;2022-07-30T15:20:48;5.80;;;2.05;;